Time;durP1;ratioP1;P1;durP2;ratioP2;P2;SDS_P1;SDS_P2;PMS_P1;PMS_P2;Temp;Humidity;BMP_temperature;BMP_pressure;BME280_temperature;BME280_humidity;BME280_pressure;Samples;Min_cycle;Max_cycle;Signal;HPM_P1;HPM_P2
2023/05/06 00:01:14;;;;;;;3.20;1.60;;;;;;;12.01;68.05;99482.12;79466;1295;3011883;-59
2023/05/06 00:03:42;;;;;;;4.30;1.60;;;;;;;11.91;68.50;99484.30;78267;1298;3068557;-60
2023/05/06 00:06:08;;;;;;;3.10;1.50;;;;;;;11.92;68.49;99485.77;79417;1296;3018306;-58
2023/05/06 00:08:35;;;;;;;3.70;1.60;;;;;;;11.87;68.59;99494.39;79452;1295;3013506;-60
2023/05/06 00:11:03;;;;;;;3.70;1.90;;;;;;;11.90;68.42;99497.14;78189;1295;3028275;-67
2023/05/06 00:13:30;;;;;;;6.60;2.00;;;;;;;11.86;68.53;99496.39;79397;1298;3013538;-59
2023/05/06 00:15:56;;;;;;;2.50;1.80;;;;;;;11.76;68.60;99498.26;79418;1297;3012953;-58
2023/05/06 00:18:24;;;;;;;8.40;2.00;;;;;;;11.68;68.79;99499.42;78182;1297;3028278;-60
2023/05/06 00:20:51;;;;;;;3.00;1.60;;;;;;;11.61;68.85;99499.69;79392;1294;3011507;-59
2023/05/06 00:23:18;;;;;;;5.40;2.00;;;;;;;11.60;68.94;99509.12;79448;1294;3012292;-57
2023/05/06 00:25:45;;;;;;;3.10;2.10;;;;;;;11.57;68.90;99513.91;78210;1295;3026249;-61
2023/05/06 00:28:12;;;;;;;3.70;1.70;;;;;;;11.48;68.95;99520.92;79372;1298;3013809;-61
2023/05/06 00:30:39;;;;;;;3.40;1.90;;;;;;;11.44;68.85;99517.16;79231;1297;3013941;-62
2023/05/06 00:33:07;;;;;;;2.60;1.70;;;;;;;11.51;68.61;99520.54;78301;1298;3028121;-60
2023/05/06 00:35:33;;;;;;;2.90;1.50;;;;;;;11.52;68.16;99521.69;79484;1295;3013829;-61
2023/05/06 00:38:10;;;;;;;4.30;1.70;;;;;;;11.52;67.89;99520.48;79399;1293;3012126;-60
2023/05/06 00:40:38;;;;;;;4.70;1.50;;;;;;;11.45;67.98;99521.98;78000;1300;3053679;-60
2023/05/06 00:43:05;;;;;;;2.00;1.40;;;;;;;11.51;67.87;99524.08;79350;1298;3013696;-62
2023/05/06 00:45:31;;;;;;;1.80;1.40;;;;;;;11.57;67.35;99520.01;79418;1297;3012147;-59
2023/05/06 00:47:59;;;;;;;4.20;2.00;;;;;;;11.52;67.73;99525.39;78181;1296;3027024;-63
2023/05/06 00:50:31;;;;;;;1.90;1.50;;;;;;;11.51;67.46;99524.77;79449;1296;3013704;-61
2023/05/06 00:52:59;;;;;;;3.00;1.30;;;;;;;11.44;67.84;99524.85;78220;1301;3047710;-60
2023/05/06 00:55:26;;;;;;;2.60;1.50;;;;;;;11.43;67.91;99522.11;79376;1301;3013850;-61
2023/05/06 00:57:53;;;;;;;2.30;1.40;;;;;;;11.45;67.95;99510.61;79218;1300;3013519;-62
2023/05/06 01:00:21;;;;;;;3.10;1.60;;;;;;;11.47;67.74;99503.44;78310;1298;3052951;-58
2023/05/06 01:02:48;;;;;;;2.60;1.70;;;;;;;11.55;67.58;99504.31;79471;1295;3014732;-60
2023/05/06 01:05:15;;;;;;;2.10;1.50;;;;;;;11.47;67.75;99509.23;79436;1295;3011882;-57
2023/05/06 01:07:49;;;;;;;5.60;1.50;;;;;;;11.40;68.16;99509.13;78245;1298;3048994;-61
2023/05/06 01:10:25;;;;;;;2.90;1.70;;;;;;;11.30;68.53;99504.85;79529;1297;3011564;-62
2023/05/06 01:13:16;;;;;;;4.50;1.50;;;;;;;11.25;68.49;99506.23;78244;1298;3050030;-60
2023/05/06 01:15:46;;;;;;;2.30;1.30;;;;;;;11.24;68.37;99502.29;77962;1307;3054035;-59
2023/05/06 01:18:16;;;;;;;3.60;1.40;;;;;;;11.30;68.12;99502.61;79396;1300;3012994;-57
2023/05/06 01:20:48;;;;;;;1.80;1.20;;;;;;;11.22;68.43;99502.39;78050;1298;3051616;-60
2023/05/06 01:23:15;;;;;;;2.30;1.30;;;;;;;11.21;68.25;99505.74;79427;1296;3011535;-61
2023/05/06 01:25:43;;;;;;;1.30;1.00;;;;;;;11.20;68.26;99492.85;78329;1295;3026529;-57
2023/05/06 01:28:10;;;;;;;7.20;1.50;;;;;;;11.22;67.97;99493.23;79596;1300;3018882;-60
2023/05/06 01:31:02;;;;;;;6.30;1.40;;;;;;;11.22;68.01;99492.75;79376;1295;3013230;-59
2023/05/06 01:33:52;;;;;;;4.90;1.90;;;;;;;11.04;68.51;99496.13;78185;1301;3054674;-62
2023/05/06 01:36:46;;;;;;;3.60;1.50;;;;;;;10.98;68.69;99493.36;78188;1301;3069510;-59
2023/05/06 01:39:19;;;;;;;2.40;1.30;;;;;;;11.02;68.50;99500.96;78095;1295;3052923;-60
2023/05/06 01:41:47;;;;;;;;;;;;;;;10.96;68.62;99505.90;79364;1295;3013256;-61
2023/05/06 01:44:16;;;;;;;2.70;1.20;;;;;;;10.87;68.87;99509.45;78138;1298;3049178;-59
2023/05/06 01:46:43;;;;;;;3.90;1.50;;;;;;;10.75;69.15;99509.11;79438;1295;3013890;-59
2023/05/06 01:49:10;;;;;;;4.50;1.60;;;;;;;10.73;69.24;99512.04;79279;1301;3011662;-62
2023/05/06 01:51:38;;;;;;;2.20;1.40;;;;;;;10.82;69.10;99504.35;78095;1298;3053350;-63
2023/05/06 01:54:05;;;;;;;2.80;1.40;;;;;;;10.90;68.57;99504.16;79373;1299;3018512;-61
2023/05/06 01:56:32;;;;;;;3.50;1.40;;;;;;;10.91;68.51;99502.35;79340;1295;3011400;-60
2023/05/06 01:59:00;;;;;;;2.90;1.50;;;;;;;10.96;68.49;99511.32;78035;1301;3049713;-61
2023/05/06 02:01:27;;;;;;;2.20;1.50;;;;;;;10.83;68.81;99521.05;79477;1295;3013284;-60
2023/05/06 02:03:53;;;;;;;4.10;1.50;;;;;;;10.79;69.43;99526.73;79343;1295;3011842;-61
2023/05/06 02:06:21;;;;;;;2.60;1.30;;;;;;;10.81;69.24;99518.03;78130;1300;3028597;-60
2023/05/06 02:08:48;;;;;;;3.20;1.30;;;;;;;10.69;69.34;99521.02;79528;1300;3013023;-58
2023/05/06 02:11:21;;;;;;;2.40;1.40;;;;;;;10.65;69.79;99515.14;78895;1295;3011927;-59
2023/05/06 02:13:50;;;;;;;2.00;1.60;;;;;;;10.71;69.62;99524.23;79505;1295;3013151;-60
2023/05/06 02:16:17;;;;;;;2.60;1.80;;;;;;;10.75;69.38;99520.33;79534;1295;3011863;-60
2023/05/06 02:18:45;;;;;;;2.80;1.30;;;;;;;10.64;69.63;99520.50;78193;1301;3051221;-58
2023/05/06 02:21:12;;;;;;;2.80;1.60;;;;;;;10.64;69.80;99518.20;79747;1300;3013170;-58
2023/05/06 02:23:38;;;;;;;4.60;1.60;;;;;;;10.57;70.00;99521.73;80113;1295;3012772;-58
2023/05/06 02:26:06;;;;;;;2.20;1.40;;;;;;;10.60;69.89;99517.02;79241;1295;3029002;-59
2023/05/06 02:28:34;;;;;;;2.10;1.30;;;;;;;10.53;69.93;99512.69;80207;1295;3012880;-62
2023/05/06 02:31:01;;;;;;;5.40;1.60;;;;;;;10.54;69.88;99514.59;79367;1296;3012980;-62
2023/05/06 02:33:29;;;;;;;3.50;1.30;;;;;;;10.58;69.68;99523.09;78055;1301;3049640;-61
2023/05/06 02:35:56;;;;;;;2.70;1.30;;;;;;;10.56;69.49;99528.46;79463;1300;3013116;-60
2023/05/06 02:38:23;;;;;;;1.80;1.30;;;;;;;10.53;69.64;99529.52;79426;1300;3012821;-60
2023/05/06 02:40:51;;;;;;;6.40;1.50;;;;;;;10.54;69.58;99534.20;78257;1300;3027573;-59
2023/05/06 02:43:17;;;;;;;3.80;1.70;;;;;;;10.55;69.35;99530.96;79360;1295;3013256;-61
2023/05/06 02:45:44;;;;;;;3.50;1.50;;;;;;;10.62;69.04;99535.45;79354;1301;3011614;-62
2023/05/06 02:48:12;;;;;;;4.30;1.50;;;;;;;10.56;68.98;99530.38;78252;1301;3028911;-60
2023/05/06 02:50:38;;;;;;;3.20;1.50;;;;;;;10.68;68.51;99541.95;79354;1300;3013658;-62
2023/05/06 02:53:07;;;;;;;2.70;1.50;;;;;;;10.60;68.54;99543.60;79327;1301;3011928;-61
2023/05/06 02:55:35;;;;;;;2.10;1.30;;;;;;;10.61;68.52;99544.61;78062;1296;3050308;-57
2023/05/06 02:58:02;;;;;;;2.20;1.50;;;;;;;10.64;68.13;99547.29;79442;1295;3013323;-61
2023/05/06 03:00:29;;;;;;;3.00;1.30;;;;;;;10.66;68.09;99546.64;79344;1301;3012006;-60
2023/05/06 03:02:57;;;;;;;3.20;1.30;;;;;;;10.69;67.89;99552.94;78255;1298;3051404;-60
2023/05/06 03:05:24;;;;;;;3.30;1.60;;;;;;;10.74;67.53;99547.23;79383;1300;3013839;-60
2023/05/06 03:07:51;;;;;;;3.40;1.50;;;;;;;10.72;67.64;99548.55;79384;1298;3011658;-61
2023/05/06 03:10:19;;;;;;;4.10;1.20;;;;;;;10.86;67.03;99551.23;78124;1301;3028058;-59
2023/05/06 03:12:46;;;;;;;4.00;1.30;;;;;;;10.86;66.55;99553.48;79257;1295;3013777;-61
2023/05/06 03:15:12;;;;;;;2.20;1.30;;;;;;;10.85;66.48;99556.37;79347;1301;3011645;-62
2023/05/06 03:17:41;;;;;;;2.00;1.60;;;;;;;10.81;66.45;99564.30;78020;1300;3028484;-60
2023/05/06 03:20:08;;;;;;;1.80;1.30;;;;;;;10.80;66.25;99562.98;79313;1301;3018601;-61
2023/05/06 03:22:36;;;;;;;1.90;1.20;;;;;;;10.83;66.37;99567.35;79437;1300;3011542;-62
2023/05/06 03:25:05;;;;;;;4.30;1.70;;;;;;;10.89;66.14;99575.18;78070;1300;3051413;-59
2023/05/06 03:27:32;;;;;;;1.80;1.10;;;;;;;10.87;65.97;99577.77;79405;1300;3013703;-60
2023/05/06 03:30:05;;;;;;;1.90;1.20;;;;;;;10.82;66.10;99581.22;78241;1301;3053342;-58
2023/05/06 03:32:33;;;;;;;3.20;1.60;;;;;;;10.72;66.19;99581.98;79459;1296;3011631;-59
2023/05/06 03:35:02;;;;;;;3.60;1.40;;;;;;;10.73;66.36;99580.17;78176;1301;3025730;-59
2023/05/06 03:37:29;;;;;;;2.60;1.40;;;;;;;10.82;65.80;99583.83;79438;1300;3011730;-62
2023/05/06 03:39:56;;;;;;;1.80;1.40;;;;;;;10.79;65.78;99586.84;79533;1295;3011671;-57
2023/05/06 03:42:26;;;;;;;2.10;1.50;;;;;;;10.77;65.71;99588.20;78120;1301;3056736;-61
2023/05/06 03:44:53;;;;;;;4.90;1.30;;;;;;;10.83;65.54;99591.36;79365;1295;3020665;-61
2023/05/06 03:47:20;;;;;;;5.60;1.90;;;;;;;10.76;65.55;99596.98;79457;1295;3013937;-58
2023/05/06 03:49:48;;;;;;;5.60;1.70;;;;;;;10.76;65.46;99598.27;78034;1301;3051960;-61
2023/05/06 03:52:14;;;;;;;1.80;1.30;;;;;;;10.86;64.93;99599.23;79474;1295;3013291;-63
2023/05/06 03:54:41;;;;;;;3.60;1.50;;;;;;;10.97;64.47;99601.71;79370;1298;3011632;-62
2023/05/06 03:57:09;;;;;;;4.80;1.40;;;;;;;10.97;64.22;99604.38;77905;1295;3026842;-58
2023/05/06 03:59:36;;;;;;;2.70;1.30;;;;;;;11.05;63.71;99608.74;79447;1295;3019274;-63
2023/05/06 04:02:03;;;;;;;2.60;1.40;;;;;;;11.08;63.82;99608.59;79291;1295;3011665;-63
2023/05/06 04:04:33;;;;;;;3.20;1.80;;;;;;;11.20;63.50;99613.69;78132;1302;3051503;-59
2023/05/06 04:07:00;;;;;;;8.20;1.70;;;;;;;11.17;63.30;99613.66;79416;1300;3014806;-60
2023/05/06 04:09:26;;;;;;;3.80;1.40;;;;;;;11.24;63.07;99611.32;79382;1295;3011340;-60
2023/05/06 04:11:55;;;;;;;2.80;1.80;;;;;;;11.28;62.40;99610.69;78147;1295;3056928;-60
2023/05/06 04:14:23;;;;;;;2.50;1.50;;;;;;;11.30;62.38;99610.27;79501;1295;3012806;-62
2023/05/06 04:16:50;;;;;;;2.30;1.50;;;;;;;11.24;62.42;99612.55;79367;1295;3011621;-61
2023/05/06 04:19:18;;;;;;;4.00;1.40;;;;;;;11.27;62.53;99615.50;78146;1301;3053497;-62
2023/05/06 04:21:46;;;;;;;3.60;1.50;;;;;;;11.28;62.27;99611.78;79516;1298;3011763;-60
2023/05/06 04:24:14;;;;;;;2.30;1.20;;;;;;;11.33;61.86;99622.32;79310;1296;3011721;-61
2023/05/06 04:26:43;;;;;;;2.20;1.50;;;;;;;11.28;61.46;99622.30;78183;1301;3055855;-59
2023/05/06 04:29:10;;;;;;;1.90;1.30;;;;;;;11.26;61.49;99620.30;79388;1299;3013753;-60
2023/05/06 04:31:43;;;;;;;3.00;1.60;;;;;;;11.20;61.42;99620.12;78187;1300;3050419;-60
2023/05/06 04:34:11;;;;;;;3.20;1.60;;;;;;;11.30;61.25;99621.83;79430;1300;3014827;-59
2023/05/06 04:36:38;;;;;;;3.20;1.30;;;;;;;11.19;61.24;99622.50;79362;1299;3011634;-61
2023/05/06 04:39:19;;;;;;;5.00;1.60;;;;;;;11.10;61.20;99626.70;78221;1300;3051684;-60
2023/05/06 04:41:48;;;;;;;2.80;1.40;;;;;;;11.22;61.14;99625.80;79460;1294;3012976;-61
2023/05/06 04:44:19;;;;;;;2.80;1.40;;;;;;;11.31;60.98;99628.09;78260;1300;3048919;-58
2023/05/06 04:46:46;;;;;;;2.10;1.60;;;;;;;11.39;60.61;99632.33;79356;1301;3012974;-59
2023/05/06 04:49:14;;;;;;;6.30;1.50;;;;;;;11.45;60.42;99632.14;79335;1296;3011928;-60
2023/05/06 04:51:42;;;;;;;2.10;1.30;;;;;;;11.50;60.28;99634.13;78171;1301;3052335;-62
2023/05/06 04:54:08;;;;;;;2.20;1.30;;;;;;;11.63;59.92;99636.64;79390;1298;3013704;-63
2023/05/06 04:56:35;;;;;;;4.30;1.50;;;;;;;11.69;59.69;99640.27;79360;1297;3012827;-60
2023/05/06 04:59:05;;;;;;;3.30;1.60;;;;;;;11.75;59.54;99641.69;78134;1298;3049602;-59
2023/05/06 05:01:31;;;;;;;2.90;1.40;;;;;;;11.81;59.60;99641.14;79538;1295;3018372;-63
2023/05/06 05:03:58;;;;;;;2.90;1.60;;;;;;;11.82;59.39;99643.52;79376;1300;3012792;-61
2023/05/06 05:06:26;;;;;;;4.10;1.60;;;;;;;11.79;59.30;99641.06;78190;1299;3028902;-61
2023/05/06 05:08:52;;;;;;;3.80;1.80;;;;;;;11.82;59.12;99642.80;79388;1298;3012947;-62
2023/05/06 05:11:19;;;;;;;3.20;1.40;;;;;;;11.85;59.28;99644.73;79422;1300;3011695;-59
2023/05/06 05:13:48;;;;;;;3.00;1.50;;;;;;;11.88;59.08;99638.39;78247;1296;3025556;-61
2023/05/06 05:16:14;;;;;;;2.70;1.70;;;;;;;11.97;58.81;99640.84;79422;1295;3012937;-59
2023/05/06 05:18:41;;;;;;;3.20;1.70;;;;;;;12.09;58.62;99640.27;79349;1300;3011923;-61
2023/05/06 05:21:15;;;;;;;5.10;1.50;;;;;;;12.12;58.72;99638.68;78620;1298;3052690;-60
2023/05/06 05:23:41;;;;;;;5.10;1.20;;;;;;;12.07;58.68;99634.09;79606;1300;3013479;-63
2023/05/06 05:26:08;;;;;;;3.50;1.80;;;;;;;12.15;58.49;99640.95;79483;1298;3011839;-61
2023/05/06 05:28:37;;;;;;;2.40;1.50;;;;;;;12.23;58.23;99637.61;78100;1300;3049710;-59
2023/05/06 05:31:04;;;;;;;2.30;1.40;;;;;;;12.28;58.23;99634.67;79269;1295;3020466;-60
2023/05/06 05:33:33;;;;;;;4.30;1.10;;;;;;;12.45;57.76;99641.14;79320;1295;3012236;-60
2023/05/06 05:36:01;;;;;;;3.30;1.60;;;;;;;12.43;57.36;99641.75;78252;1301;3052334;-61
2023/05/06 05:38:29;;;;;;;2.40;1.30;;;;;;;12.65;56.57;99647.54;79211;1303;3013676;-62
2023/05/06 05:40:55;;;;;;;5.40;1.20;;;;;;;12.82;55.57;99645.70;79279;1295;3011902;-62
2023/05/06 05:43:25;;;;;;;5.90;1.40;;;;;;;12.95;55.11;99641.33;78131;1300;3050544;-61
2023/05/06 05:45:52;;;;;;;3.40;1.20;;;;;;;13.02;54.10;99637.17;79470;1300;3012931;-60
2023/05/06 05:48:21;;;;;;;4.10;1.60;;;;;;;13.06;53.08;99644.05;78875;1300;3011726;-60
2023/05/06 05:50:48;;;;;;;3.50;1.40;;;;;;;13.11;53.37;99641.81;79481;1301;3012995;-60
2023/05/06 05:53:15;;;;;;;4.10;1.40;;;;;;;13.18;53.35;99644.33;79349;1301;3013544;-60
2023/05/06 05:55:43;;;;;;;2.00;1.10;;;;;;;13.11;53.06;99644.80;78389;1298;3028122;-61
2023/05/06 05:58:10;;;;;;;2.10;1.00;;;;;;;13.14;53.20;99650.40;79757;1298;3018504;-58
2023/05/06 06:00:37;;;;;;;3.80;1.20;;;;;;;13.12;53.35;99649.81;79540;1294;3011830;-60
2023/05/06 06:03:08;;;;;;;4.30;1.00;;;;;;;13.14;53.13;99653.02;78369;1297;3049897;-59
2023/05/06 06:05:36;;;;;;;2.60;1.00;;;;;;;13.28;53.37;99656.66;79342;1299;3011581;-62
2023/05/06 06:08:04;;;;;;;2.00;1.20;;;;;;;13.42;53.19;99654.30;79654;1300;3012071;-58
2023/05/06 06:10:31;;;;;;;2.50;1.20;;;;;;;13.59;52.95;99652.27;75957;1295;3050575;-60
2023/05/06 06:13:00;;;;;;;3.00;1.20;;;;;;;13.72;52.22;99643.48;79477;1296;3013157;-60
2023/05/06 06:15:30;;;;;;;2.30;1.10;;;;;;;13.85;51.84;99646.74;78945;1294;3011755;-58
2023/05/06 06:17:57;;;;;;;2.30;1.00;;;;;;;13.98;51.32;99650.02;79457;1295;3013107;-60
2023/05/06 06:20:25;;;;;;;5.50;1.00;;;;;;;14.07;50.87;99653.23;79365;1301;3011756;-59
2023/05/06 06:22:54;;;;;;;4.40;1.00;;;;;;;14.15;50.62;99658.88;78348;1301;3050718;-59
2023/05/06 06:25:20;;;;;;;4.80;1.00;;;;;;;14.22;49.46;99661.00;79550;1300;3013876;-59
2023/05/06 06:27:47;;;;;;;2.40;1.10;;;;;;;14.27;48.91;99666.27;79483;1295;3011564;-60
2023/05/06 06:30:15;;;;;;;2.40;0.90;;;;;;;14.29;48.28;99663.30;77983;1301;3025904;-62
2023/05/06 06:32:49;;;;;;;1.20;0.80;;;;;;;14.30;48.01;99664.67;79204;1301;3012930;-59
2023/05/06 06:35:18;;;;;;;;;;;;;;;14.24;47.70;99664.77;78194;1298;3051799;-59
2023/05/06 06:37:45;;;;;;;2.70;1.00;;;;;;;14.23;47.61;99672.21;79479;1299;3013679;-59
2023/05/06 06:40:12;;;;;;;1.80;1.10;;;;;;;14.20;48.16;99671.56;79503;1295;3011748;-64
2023/05/06 06:42:40;;;;;;;5.00;1.10;;;;;;;14.21;48.69;99681.88;78127;1298;3056436;-61
2023/05/06 06:45:40;;;;;;;2.80;0.90;;;;;;;14.31;48.07;99681.16;77951;1298;3049540;-60
2023/05/06 06:48:07;;;;;;;2.70;1.00;;;;;;;14.41;47.80;99677.23;79382;1295;3018400;-62
2023/05/06 06:50:33;;;;;;;2.50;1.00;;;;;;;14.52;46.73;99680.18;79357;1300;3011435;-61
2023/05/06 06:53:01;;;;;;;2.20;0.90;;;;;;;14.63;46.01;99683.20;78215;1298;3028293;-60
2023/05/06 06:55:28;;;;;;;2.70;0.80;;;;;;;14.68;45.50;99689.75;79315;1299;3013561;-62
2023/05/06 06:57:55;;;;;;;1.10;0.70;;;;;;;14.79;45.58;99686.53;79406;1298;3011666;-61
2023/05/06 07:00:23;;;;;;;3.90;0.90;;;;;;;14.86;45.22;99690.85;78214;1298;3028094;-61
2023/05/06 07:02:49;;;;;;;3.10;1.00;;;;;;;15.02;45.03;99689.13;79311;1298;3012995;-61
2023/05/06 07:05:16;;;;;;;1.30;0.70;;;;;;;15.07;43.97;99692.29;79357;1298;3012766;-62
2023/05/06 07:07:44;;;;;;;1.00;0.70;;;;;;;15.10;42.25;99691.39;78278;1297;3027424;-60
2023/05/06 07:10:10;;;;;;;2.40;0.80;;;;;;;15.11;40.80;99690.78;79526;1298;3013013;-62
2023/05/06 07:12:38;;;;;;;2.40;0.50;;;;;;;15.10;38.89;99693.16;79380;1295;3013225;-60
2023/05/06 07:15:07;;;;;;;3.40;0.60;;;;;;;15.23;38.91;99689.13;78215;1298;3049950;-58
2023/05/06 07:17:34;;;;;;;1.40;0.70;;;;;;;15.37;38.04;99683.67;79458;1296;3011632;-63
2023/05/06 07:20:00;;;;;;;1.10;0.80;;;;;;;15.49;38.33;99689.80;79360;1305;3011787;-59
2023/05/06 07:22:28;;;;;;;1.30;0.60;;;;;;;15.58;37.78;99693.69;78339;1299;3052545;-59
2023/05/06 07:24:55;;;;;;;1.00;0.50;;;;;;;15.56;37.19;99697.73;79439;1298;3013266;-59
2023/05/06 07:27:23;;;;;;;4.30;0.60;;;;;;;15.53;35.93;99691.44;79378;1295;3013230;-60
2023/05/06 07:29:50;;;;;;;0.90;0.50;;;;;;;15.54;35.26;99703.19;78229;1298;3028292;-60
2023/05/06 07:32:17;;;;;;;2.20;0.60;;;;;;;15.55;35.44;99704.70;79498;1298;3013445;-62
2023/05/06 07:34:43;;;;;;;2.50;0.90;;;;;;;15.73;35.93;99701.90;79498;1300;3011849;-58
2023/05/06 07:37:11;;;;;;;1.60;0.50;;;;;;;15.88;35.67;99703.77;78227;1299;3028985;-60
2023/05/06 07:39:38;;;;;;;2.00;0.80;;;;;;;15.92;35.28;99701.48;79425;1295;3019015;-59
2023/05/06 07:42:06;;;;;;;2.50;0.80;;;;;;;15.89;35.59;99698.38;79407;1301;3013566;-60
2023/05/06 07:44:35;;;;;;;1.10;0.50;;;;;;;16.07;35.24;99693.05;78187;1297;3049484;-60
2023/05/06 07:47:02;;;;;;;3.90;0.70;;;;;;;16.14;35.22;99694.48;79583;1296;3012791;-59
2023/05/06 07:49:32;;;;;;;1.20;0.60;;;;;;;15.93;34.60;99700.34;79227;1296;3011960;-60
2023/05/06 07:51:59;;;;;;;4.90;0.60;;;;;;;15.97;35.37;99702.16;78062;1298;3051542;-61
2023/05/06 07:54:26;;;;;;;3.00;0.80;;;;;;;16.02;35.03;99704.61;79427;1300;3013154;-60
2023/05/06 07:56:52;;;;;;;1.30;0.50;;;;;;;16.16;34.22;99700.46;79428;1296;3013168;-62
2023/05/06 07:59:20;;;;;;;0.60;0.50;;;;;;;16.26;34.17;99704.78;78200;1297;3026988;-60
2023/05/06 08:01:47;;;;;;;1.50;0.60;;;;;;;16.38;33.81;99706.16;79478;1296;3013717;-61
2023/05/06 08:04:13;;;;;;;1.50;0.70;;;;;;;16.53;33.35;99704.55;79477;1298;3011780;-60
2023/05/06 08:06:41;;;;;;;3.50;0.60;;;;;;;16.61;32.87;99708.89;78228;1301;3028942;-60
2023/05/06 08:09:08;;;;;;;5.30;0.90;;;;;;;16.72;32.70;99714.77;79382;1298;3013179;-59
2023/05/06 08:11:34;;;;;;;2.00;0.60;;;;;;;16.77;32.67;99709.52;79362;1300;3011652;-61
2023/05/06 08:14:02;;;;;;;6.40;0.60;;;;;;;16.91;32.86;99705.89;78157;1295;3029017;-60
2023/05/06 08:16:29;;;;;;;1.90;1.00;;;;;;;17.07;33.03;99712.20;79309;1301;3011623;-60
2023/05/06 08:18:56;;;;;;;5.70;0.80;;;;;;;17.04;33.40;99709.65;79297;1300;3011569;-59
2023/05/06 08:21:23;;;;;;;1.60;1.10;;;;;;;17.14;33.49;99713.16;78243;1295;3028583;-61
2023/05/06 08:23:51;;;;;;;3.60;1.00;;;;;;;17.20;32.93;99717.79;79341;1298;3013018;-61
2023/05/06 08:26:17;;;;;;;1.70;0.70;;;;;;;17.33;33.50;99713.73;79435;1301;3012246;-60
2023/05/06 08:28:45;;;;;;;6.60;0.90;;;;;;;17.37;33.28;99707.04;78258;1298;3050013;-59
2023/05/06 08:31:12;;;;;;;3.10;0.90;;;;;;;17.41;33.84;99710.25;79446;1298;3013180;-61
2023/05/06 08:33:39;;;;;;;5.40;0.90;;;;;;;17.56;33.49;99711.61;79453;1298;3011527;-59
2023/05/06 08:36:06;;;;;;;2.50;1.30;;;;;;;17.56;32.99;99709.46;78242;1296;3026616;-60
2023/05/06 08:38:33;;;;;;;1.60;1.10;;;;;;;17.64;33.52;99706.12;79307;1298;3013260;-59
2023/05/06 08:41:02;;;;;;;1.60;0.80;;;;;;;17.74;33.83;99709.15;79403;1295;3013117;-59
2023/05/06 08:43:30;;;;;;;2.00;0.70;;;;;;;17.71;33.40;99709.95;78137;1295;3048201;-60
2023/05/06 08:45:57;;;;;;;2.40;1.00;;;;;;;17.61;33.25;99713.84;79433;1302;3018791;-58
2023/05/06 08:48:23;;;;;;;2.00;0.70;;;;;;;17.52;33.17;99718.89;79247;1298;3011646;-61
2023/05/06 08:50:51;;;;;;;3.30;0.70;;;;;;;17.71;33.40;99714.73;78073;1300;3029036;-60
2023/05/06 08:53:17;;;;;;;1.20;0.80;;;;;;;17.87;32.61;99713.92;79316;1301;3012983;-61
2023/05/06 08:55:44;;;;;;;1.70;0.90;;;;;;;18.02;32.82;99723.44;79351;1298;3012181;-61
2023/05/06 08:58:14;;;;;;;1.60;1.00;;;;;;;18.01;32.55;99713.77;78320;1301;3026385;-59
2023/05/06 09:00:41;;;;;;;1.70;1.10;;;;;;;17.77;32.81;99717.59;79384;1298;3012940;-59
2023/05/06 09:03:08;;;;;;;6.40;0.90;;;;;;;17.91;33.19;99717.81;79426;1298;3011819;-61
2023/05/06 09:05:36;;;;;;;2.30;1.10;;;;;;;17.97;33.23;99718.92;78115;1301;3052388;-59
2023/05/06 09:08:02;;;;;;;5.70;0.70;;;;;;;18.02;32.90;99721.83;79412;1294;3018995;-61
2023/05/06 09:10:48;;;;;;;2.70;0.80;;;;;;;17.76;33.36;99726.02;79381;1297;3011569;-60
2023/05/06 09:13:17;;;;;;;2.30;1.00;;;;;;;17.77;33.91;99726.30;78110;1299;3048956;-62
2023/05/06 09:15:46;;;;;;;3.90;0.80;;;;;;;17.73;33.71;99717.77;79421;1302;3014160;-61
2023/05/06 09:18:15;;;;;;;3.60;1.00;;;;;;;17.69;33.57;99735.14;78848;1299;3012314;-59
2023/05/06 09:20:44;;;;;;;12.00;1.00;;;;;;;17.71;33.44;99723.91;79666;1309;3013172;-62
2023/05/06 09:23:11;;;;;;;2.50;0.80;;;;;;;18.07;33.00;99721.95;79400;1298;3011885;-62
2023/05/06 09:25:39;;;;;;;6.70;1.20;;;;;;;18.26;32.76;99728.83;78131;1299;3051923;-59
2023/05/06 09:28:10;;;;;;;3.60;1.00;;;;;;;18.09;33.12;99731.71;79292;1296;3015059;-59
2023/05/06 09:30:42;;;;;;;1.60;1.30;;;;;;;17.92;32.24;99728.23;78088;1301;3052824;-58
2023/05/06 09:33:09;;;;;;;5.90;1.00;;;;;;;18.08;32.39;99723.08;79420;1298;3013326;-59
2023/05/06 09:35:40;;;;;;;1.30;0.90;;;;;;;18.38;32.00;99717.63;78227;1298;3029154;-61
2023/05/06 09:38:07;;;;;;;3.40;1.10;;;;;;;18.55;31.89;99718.27;79371;1298;3011317;-60
2023/05/06 09:40:36;;;;;;;0.80;0.60;;;;;;;18.72;32.01;99713.35;79076;1296;3011641;-61
2023/05/06 09:43:03;;;;;;;2.40;1.10;;;;;;;18.64;31.70;99713.36;79567;1298;3018479;-66
2023/05/06 09:45:30;;;;;;;4.50;1.00;;;;;;;18.49;31.24;99713.14;79492;1296;3012742;-60
2023/05/06 09:47:58;;;;;;;4.60;1.10;;;;;;;18.31;30.73;99715.38;78243;1298;3025868;-61
2023/05/06 09:50:25;;;;;;;3.30;0.90;;;;;;;18.21;30.34;99718.58;79309;1301;3012937;-58
2023/05/06 09:52:52;;;;;;;1.20;0.90;;;;;;;18.01;30.62;99728.45;79353;1301;3013018;-61
2023/05/06 09:55:21;;;;;;;1.70;0.90;;;;;;;18.02;31.15;99721.85;78090;1301;3028270;-58
2023/05/06 09:57:48;;;;;;;4.90;0.90;;;;;;;18.30;31.22;99709.46;79542;1296;3013339;-62
2023/05/06 10:00:15;;;;;;;2.00;0.80;;;;;;;18.56;31.06;99717.05;79601;1294;3012129;-59
2023/05/06 10:02:44;;;;;;;3.30;0.70;;;;;;;18.85;29.93;99712.84;78402;1295;3053372;-60
2023/05/06 10:05:11;;;;;;;1.60;0.80;;;;;;;19.11;29.50;99711.80;79483;1307;3013431;-63
2023/05/06 10:07:38;;;;;;;1.50;0.80;;;;;;;19.22;29.30;99707.41;79616;1298;3011446;-59
2023/05/06 10:10:10;;;;;;;1.10;0.70;;;;;;;19.41;29.72;99708.11;78216;1298;3069121;-60
2023/05/06 10:12:37;;;;;;;2.50;0.90;;;;;;;19.64;30.06;99706.42;79486;1299;3011665;-61
2023/05/06 10:15:06;;;;;;;1.50;0.70;;;;;;;19.76;29.89;99704.80;78281;1303;3028825;-62
2023/05/06 10:17:34;;;;;;;6.90;1.00;;;;;;;19.45;29.84;99713.73;79438;1296;3011713;-61
2023/05/06 10:20:06;;;;;;;1.60;1.00;;;;;;;19.02;30.60;99711.14;78952;1299;3011994;-58
2023/05/06 10:22:42;;;;;;;2.60;1.00;;;;;;;18.89;30.98;99712.69;79535;1299;3011441;-61
2023/05/06 10:25:32;;;;;;;3.00;0.70;;;;;;;18.87;30.58;99709.52;78166;1302;3053482;-63
2023/05/06 10:28:05;;;;;;;3.00;1.10;;;;;;;19.23;30.29;99707.95;78453;1298;3055176;-61
2023/05/06 10:30:33;;;;;;;3.60;1.10;;;;;;;19.17;30.49;99707.60;79448;1297;3011954;-57
2023/05/06 10:33:08;;;;;;;5.30;0.90;;;;;;;19.53;30.75;99710.19;78190;1308;3051052;-61
2023/05/06 10:35:42;;;;;;;2.50;0.90;;;;;;;19.85;29.57;99713.02;78162;1300;3056128;-59
2023/05/06 10:38:17;;;;;;;8.20;1.20;;;;;;;19.95;29.61;99707.14;79473;1296;3011656;-63
2023/05/06 10:40:45;;;;;;;2.60;0.90;;;;;;;20.04;29.45;99705.04;78182;1302;3053369;-58
2023/05/06 10:43:28;;;;;;;1.60;0.80;;;;;;;20.06;28.99;99703.94;79378;1301;3018542;-59
2023/05/06 10:46:15;;;;;;;3.20;1.00;;;;;;;20.07;28.97;99701.91;78210;1308;3052859;-61
2023/05/06 10:49:07;;;;;;;1.80;1.00;;;;;;;20.18;28.80;99705.60;78205;1308;3068628;-61
2023/05/06 10:51:37;;;;;;;1.70;0.80;;;;;;;20.27;28.08;99699.94;78249;1299;3052578;-60
2023/05/06 10:54:07;;;;;;;2.90;1.00;;;;;;;20.35;28.17;99701.25;79527;1296;3013429;-58
2023/05/06 10:56:37;;;;;;;1.70;0.90;;;;;;;20.38;28.25;99707.17;78259;1296;3054028;-59
2023/05/06 10:59:10;;;;;;;1.50;0.90;;;;;;;19.75;28.62;99702.59;79469;1298;3013060;-58
2023/05/06 11:01:42;;;;;;;1.90;1.10;;;;;;;19.32;29.20;99715.44;78225;1306;3052164;-62
2023/05/06 11:04:13;;;;;;;;;;;;;;;19.40;29.26;99709.77;79352;1301;3011646;-60
2023/05/06 11:06:47;;;;;;;4.00;1.00;;;;;;;19.69;28.98;99706.67;78287;1296;3051774;-60
2023/05/06 11:09:24;;;;;;;4.90;1.40;;;;;;;19.65;29.38;99696.93;78841;1295;3013182;-59
2023/05/06 11:12:00;;;;;;;3.70;1.20;;;;;;;19.63;29.36;99711.70;78123;1299;3056728;-65
2023/05/06 11:14:29;;;;;;;1.40;1.10;;;;;;;19.31;29.15;99703.34;78302;1295;3049135;-56
2023/05/06 11:16:57;;;;;;;4.40;1.00;;;;;;;19.29;29.04;99700.27;79493;1296;3013578;-57
2023/05/06 11:19:26;;;;;;;2.00;1.20;;;;;;;19.48;29.39;99693.59;79411;1304;3011652;-57
2023/05/06 11:21:56;;;;;;;5.20;1.00;;;;;;;19.92;29.02;99691.96;78213;1302;3052426;-56
2023/05/06 11:24:30;;;;;;;3.10;1.10;;;;;;;19.94;28.43;99686.02;79639;1298;3011558;-59